sensor_id;sensor_type;location;lat;lon;timestamp;P1;durP1;ratioP1;P2;durP2;ratioP2
39452;SDS011;25154;-33.684;151.102;2023-02-18T00:03:37;5.70;;;2.13;;
39452;SDS011;25154;-33.684;151.102;2023-02-18T00:08:41;4.88;;;1.42;;
39452;SDS011;25154;-33.684;151.102;2023-02-18T00:13:51;5.65;;;1.70;;
39452;SDS011;25154;-33.684;151.102;2023-02-18T00:18:55;3.90;;;1.50;;
39452;SDS011;25154;-33.684;151.102;2023-02-18T00:23:59;3.88;;;1.50;;
39452;SDS011;25154;-33.684;151.102;2023-02-18T00:29:01;4.60;;;1.50;;
39452;SDS011;25154;-33.684;151.102;2023-02-18T00:34:04;3.95;;;1.52;;
39452;SDS011;25154;-33.684;151.102;2023-02-18T00:39:08;3.50;;;1.50;;
39452;SDS011;25154;-33.684;151.102;2023-02-18T00:44:11;4.38;;;1.40;;
39452;SDS011;25154;-33.684;151.102;2023-02-18T00:49:14;6.78;;;1.63;;
39452;SDS011;25154;-33.684;151.102;2023-02-18T00:54:16;4.90;;;1.40;;
39452;SDS011;25154;-33.684;151.102;2023-02-18T00:59:19;4.68;;;1.75;;
39452;SDS011;25154;-33.684;151.102;2023-02-18T01:04:21;3.47;;;1.35;;
39452;SDS011;25154;-33.684;151.102;2023-02-18T01:09:24;5.68;;;1.60;;
39452;SDS011;25154;-33.684;151.102;2023-02-18T01:14:26;3.58;;;1.50;;
39452;SDS011;25154;-33.684;151.102;2023-02-18T01:19:28;6.13;;;1.60;;
39452;SDS011;25154;-33.684;151.102;2023-02-18T01:24:31;7.47;;;1.55;;
39452;SDS011;25154;-33.684;151.102;2023-02-18T01:29:34;5.97;;;1.70;;
39452;SDS011;25154;-33.684;151.102;2023-02-18T01:34:37;5.25;;;1.60;;
39452;SDS011;25154;-33.684;151.102;2023-02-18T01:39:40;4.90;;;1.67;;
39452;SDS011;25154;-33.684;151.102;2023-02-18T01:44:43;3.80;;;1.58;;
39452;SDS011;25154;-33.684;151.102;2023-02-18T01:49:48;4.25;;;1.30;;
39452;SDS011;25154;-33.684;151.102;2023-02-18T01:54:54;4.45;;;1.50;;
39452;SDS011;25154;-33.684;151.102;2023-02-18T02:00:00;5.28;;;1.52;;
39452;SDS011;25154;-33.684;151.102;2023-02-18T02:05:07;5.70;;;1.70;;
39452;SDS011;25154;-33.684;151.102;2023-02-18T02:10:11;4.72;;;1.50;;
39452;SDS011;25154;-33.684;151.102;2023-02-18T02:31:36;3.60;;;1.40;;
39452;SDS011;25154;-33.684;151.102;2023-02-18T02:42:31;3.10;;;1.40;;
39452;SDS011;25154;-33.684;151.102;2023-02-18T02:47:48;4.82;;;1.70;;
39452;SDS011;25154;-33.684;151.102;2023-02-18T02:53:15;5.20;;;1.77;;
39452;SDS011;25154;-33.684;151.102;2023-02-18T02:58:24;6.93;;;1.85;;
39452;SDS011;25154;-33.684;151.102;2023-02-18T03:03:33;5.65;;;1.50;;
39452;SDS011;25154;-33.684;151.102;2023-02-18T03:09:01;10.27;;;2.58;;
39452;SDS011;25154;-33.684;151.102;2023-02-18T03:14:20;4.95;;;1.75;;
39452;SDS011;25154;-33.684;151.102;2023-02-18T03:19:44;6.47;;;2.03;;
39452;SDS011;25154;-33.684;151.102;2023-02-18T03:24:53;5.60;;;1.75;;
39452;SDS011;25154;-33.684;151.102;2023-02-18T03:30:03;4.68;;;1.65;;
39452;SDS011;25154;-33.684;151.102;2023-02-18T03:35:17;5.45;;;1.85;;
39452;SDS011;25154;-33.684;151.102;2023-02-18T03:40:20;6.63;;;1.75;;
39452;SDS011;25154;-33.684;151.102;2023-02-18T03:45:22;4.30;;;1.55;;
39452;SDS011;25154;-33.684;151.102;2023-02-18T03:50:26;7.93;;;1.63;;
39452;SDS011;25154;-33.684;151.102;2023-02-18T03:55:28;7.93;;;2.13;;
39452;SDS011;25154;-33.684;151.102;2023-02-18T04:00:31;3.92;;;1.75;;
39452;SDS011;25154;-33.684;151.102;2023-02-18T04:05:33;6.50;;;1.90;;
39452;SDS011;25154;-33.684;151.102;2023-02-18T04:10:37;12.90;;;2.00;;
39452;SDS011;25154;-33.684;151.102;2023-02-18T04:15:39;6.38;;;2.17;;
39452;SDS011;25154;-33.684;151.102;2023-02-18T04:20:41;7.53;;;2.28;;
39452;SDS011;25154;-33.684;151.102;2023-02-18T04:25:45;7.68;;;2.20;;
39452;SDS011;25154;-33.684;151.102;2023-02-18T04:30:48;6.57;;;1.70;;
39452;SDS011;25154;-33.684;151.102;2023-02-18T04:35:50;6.80;;;2.42;;
39452;SDS011;25154;-33.684;151.102;2023-02-18T04:40:52;9.35;;;1.83;;
39452;SDS011;25154;-33.684;151.102;2023-02-18T04:45:55;4.25;;;1.70;;
39452;SDS011;25154;-33.684;151.102;2023-02-18T04:50:57;5.45;;;1.83;;
39452;SDS011;25154;-33.684;151.102;2023-02-18T04:55:59;5.82;;;1.98;;
39452;SDS011;25154;-33.684;151.102;2023-02-18T05:01:03;6.75;;;2.17;;
39452;SDS011;25154;-33.684;151.102;2023-02-18T05:06:05;6.30;;;2.45;;
39452;SDS011;25154;-33.684;151.102;2023-02-18T05:11:08;5.07;;;1.67;;
39452;SDS011;25154;-33.684;151.102;2023-02-18T05:16:10;6.80;;;1.95;;
39452;SDS011;25154;-33.684;151.102;2023-02-18T05:21:13;7.53;;;2.25;;
39452;SDS011;25154;-33.684;151.102;2023-02-18T05:26:15;7.13;;;2.08;;
39452;SDS011;25154;-33.684;151.102;2023-02-18T05:31:18;7.00;;;1.83;;
39452;SDS011;25154;-33.684;151.102;2023-02-18T05:36:20;14.10;;;2.08;;
39452;SDS011;25154;-33.684;151.102;2023-02-18T05:41:23;4.72;;;1.90;;
39452;SDS011;25154;-33.684;151.102;2023-02-18T05:46:25;6.88;;;2.00;;
39452;SDS011;25154;-33.684;151.102;2023-02-18T05:51:27;77.00;;;11.57;;
39452;SDS011;25154;-33.684;151.102;2023-02-18T05:56:30;8.80;;;2.25;;
39452;SDS011;25154;-33.684;151.102;2023-02-18T06:01:32;9.02;;;2.80;;
39452;SDS011;25154;-33.684;151.102;2023-02-18T06:06:34;6.60;;;2.22;;
39452;SDS011;25154;-33.684;151.102;2023-02-18T06:11:37;8.65;;;2.53;;
39452;SDS011;25154;-33.684;151.102;2023-02-18T06:16:40;12.02;;;2.53;;
39452;SDS011;25154;-33.684;151.102;2023-02-18T06:21:42;6.60;;;2.50;;
39452;SDS011;25154;-33.684;151.102;2023-02-18T06:26:44;8.60;;;1.92;;
39452;SDS011;25154;-33.684;151.102;2023-02-18T06:31:47;7.15;;;2.15;;
39452;SDS011;25154;-33.684;151.102;2023-02-18T06:36:49;10.32;;;1.70;;
39452;SDS011;25154;-33.684;151.102;2023-02-18T06:41:52;9.27;;;2.00;;
39452;SDS011;25154;-33.684;151.102;2023-02-18T06:46:54;5.82;;;1.80;;
39452;SDS011;25154;-33.684;151.102;2023-02-18T06:51:56;6.53;;;1.75;;
39452;SDS011;25154;-33.684;151.102;2023-02-18T06:56:59;6.72;;;2.00;;
39452;SDS011;25154;-33.684;151.102;2023-02-18T07:02:01;6.30;;;1.90;;
39452;SDS011;25154;-33.684;151.102;2023-02-18T07:07:04;6.85;;;1.60;;
39452;SDS011;25154;-33.684;151.102;2023-02-18T07:12:06;7.63;;;1.90;;
39452;SDS011;25154;-33.684;151.102;2023-02-18T07:17:08;5.35;;;1.80;;
39452;SDS011;25154;-33.684;151.102;2023-02-18T07:22:11;5.45;;;1.70;;
39452;SDS011;25154;-33.684;151.102;2023-02-18T07:27:13;4.45;;;1.35;;
39452;SDS011;25154;-33.684;151.102;2023-02-18T07:32:17;4.88;;;1.40;;
39452;SDS011;25154;-33.684;151.102;2023-02-18T07:37:20;6.25;;;1.77;;
39452;SDS011;25154;-33.684;151.102;2023-02-18T07:42:22;8.85;;;1.85;;
39452;SDS011;25154;-33.684;151.102;2023-02-18T07:47:25;20.20;;;1.90;;
39452;SDS011;25154;-33.684;151.102;2023-02-18T07:52:27;17.80;;;1.90;;
39452;SDS011;25154;-33.684;151.102;2023-02-18T07:57:29;24.80;;;2.72;;
39452;SDS011;25154;-33.684;151.102;2023-02-18T08:02:32;11.48;;;1.42;;
39452;SDS011;25154;-33.684;151.102;2023-02-18T08:07:34;6.85;;;1.20;;
39452;SDS011;25154;-33.684;151.102;2023-02-18T08:12:37;10.07;;;2.45;;
39452;SDS011;25154;-33.684;151.102;2023-02-18T08:17:39;9.65;;;1.83;;
39452;SDS011;25154;-33.684;151.102;2023-02-18T08:22:42;5.60;;;1.80;;
39452;SDS011;25154;-33.684;151.102;2023-02-18T08:27:44;4.95;;;1.20;;
39452;SDS011;25154;-33.684;151.102;2023-02-18T08:32:46;7.43;;;1.65;;
39452;SDS011;25154;-33.684;151.102;2023-02-18T08:37:49;4.88;;;2.15;;
39452;SDS011;25154;-33.684;151.102;2023-02-18T08:42:51;6.47;;;1.75;;
39452;SDS011;25154;-33.684;151.102;2023-02-18T08:47:53;3.55;;;1.20;;
39452;SDS011;25154;-33.684;151.102;2023-02-18T08:52:56;4.30;;;1.33;;
39452;SDS011;25154;-33.684;151.102;2023-02-18T08:58:03;3.65;;;1.35;;
39452;SDS011;25154;-33.684;151.102;2023-02-18T09:03:06;4.88;;;1.10;;
39452;SDS011;25154;-33.684;151.102;2023-02-18T09:08:10;4.55;;;1.40;;
39452;SDS011;25154;-33.684;151.102;2023-02-18T09:13:13;3.97;;;1.35;;
39452;SDS011;25154;-33.684;151.102;2023-02-18T09:18:15;5.15;;;1.40;;
39452;SDS011;25154;-33.684;151.102;2023-02-18T09:23:18;5.35;;;1.45;;
39452;SDS011;25154;-33.684;151.102;2023-02-18T09:28:21;5.68;;;1.77;;
39452;SDS011;25154;-33.684;151.102;2023-02-18T09:33:24;4.10;;;1.55;;
39452;SDS011;25154;-33.684;151.102;2023-02-18T09:38:26;6.47;;;1.60;;
39452;SDS011;25154;-33.684;151.102;2023-02-18T09:43:33;8.18;;;1.70;;
39452;SDS011;25154;-33.684;151.102;2023-02-18T09:53:37;11.68;;;2.00;;
39452;SDS011;25154;-33.684;151.102;2023-02-18T09:58:41;7.18;;;1.60;;
39452;SDS011;25154;-33.684;151.102;2023-02-18T10:03:46;4.75;;;1.25;;
39452;SDS011;25154;-33.684;151.102;2023-02-18T10:08:49;3.10;;;1.00;;
39452;SDS011;25154;-33.684;151.102;2023-02-18T10:13:54;4.68;;;1.00;;
39452;SDS011;25154;-33.684;151.102;2023-02-18T10:19:03;4.13;;;0.90;;
39452;SDS011;25154;-33.684;151.102;2023-02-18T10:24:45;2.90;;;1.00;;
39452;SDS011;25154;-33.684;151.102;2023-02-18T10:29:49;4.65;;;1.10;;
39452;SDS011;25154;-33.684;151.102;2023-02-18T10:45:48;7.63;;;1.27;;
39452;SDS011;25154;-33.684;151.102;2023-02-18T10:50:51;2.67;;;0.80;;
39452;SDS011;25154;-33.684;151.102;2023-02-18T10:55:54;3.60;;;0.95;;
39452;SDS011;25154;-33.684;151.102;2023-02-18T11:01:12;2.58;;;0.80;;
39452;SDS011;25154;-33.684;151.102;2023-02-18T11:11:48;2.75;;;0.70;;
39452;SDS011;25154;-33.684;151.102;2023-02-18T11:16:50;2.70;;;0.98;;
39452;SDS011;25154;-33.684;151.102;2023-02-18T11:22:05;1.63;;;0.90;;
39452;SDS011;25154;-33.684;151.102;2023-02-18T11:27:13;2.50;;;0.80;;
39452;SDS011;25154;-33.684;151.102;2023-02-18T11:32:28;3.25;;;0.90;;
39452;SDS011;25154;-33.684;151.102;2023-02-18T11:37:34;3.22;;;0.90;;
39452;SDS011;25154;-33.684;151.102;2023-02-18T11:42:37;5.13;;;1.00;;
39452;SDS011;25154;-33.684;151.102;2023-02-18T11:47:40;2.03;;;1.00;;
39452;SDS011;25154;-33.684;151.102;2023-02-18T11:52:44;2.85;;;1.00;;
39452;SDS011;25154;-33.684;151.102;2023-02-18T12:03:03;12.30;;;1.13;;
39452;SDS011;25154;-33.684;151.102;2023-02-18T12:08:37;3.70;;;1.10;;
39452;SDS011;25154;-33.684;151.102;2023-02-18T12:14:01;4.47;;;1.35;;
39452;SDS011;25154;-33.684;151.102;2023-02-18T12:30:20;6.22;;;2.17;;
39452;SDS011;25154;-33.684;151.102;2023-02-18T12:35:40;7.43;;;1.90;;
39452;SDS011;25154;-33.684;151.102;2023-02-18T12:46:21;8.35;;;2.30;;
39452;SDS011;25154;-33.684;151.102;2023-02-18T13:02:43;7.45;;;2.13;;
39452;SDS011;25154;-33.684;151.102;2023-02-18T13:08:13;8.45;;;2.35;;
39452;SDS011;25154;-33.684;151.102;2023-02-18T13:13:38;7.00;;;2.00;;
39452;SDS011;25154;-33.684;151.102;2023-02-18T13:19:13;8.48;;;2.53;;
39452;SDS011;25154;-33.684;151.102;2023-02-18T13:30:20;11.95;;;3.20;;
39452;SDS011;25154;-33.684;151.102;2023-02-18T13:40:21;24.63;;;4.68;;
39452;SDS011;25154;-33.684;151.102;2023-02-18T13:45:30;27.45;;;5.82;;
39452;SDS011;25154;-33.684;151.102;2023-02-18T13:50:41;22.63;;;4.80;;
39452;SDS011;25154;-33.684;151.102;2023-02-18T14:11:33;35.03;;;5.60;;
39452;SDS011;25154;-33.684;151.102;2023-02-18T14:27:41;29.33;;;5.38;;
39452;SDS011;25154;-33.684;151.102;2023-02-18T14:32:44;36.85;;;5.80;;
39452;SDS011;25154;-33.684;151.102;2023-02-18T14:38:00;24.17;;;5.18;;
39452;SDS011;25154;-33.684;151.102;2023-02-18T14:43:35;26.58;;;5.53;;
39452;SDS011;25154;-33.684;151.102;2023-02-18T14:49:18;25.88;;;5.22;;
39452;SDS011;25154;-33.684;151.102;2023-02-18T14:54:38;26.65;;;6.05;;
39452;SDS011;25154;-33.684;151.102;2023-02-18T14:59:42;21.65;;;5.38;;
39452;SDS011;25154;-33.684;151.102;2023-02-18T15:04:45;28.70;;;5.93;;
39452;SDS011;25154;-33.684;151.102;2023-02-18T15:09:52;29.00;;;6.75;;
39452;SDS011;25154;-33.684;151.102;2023-02-18T15:14:55;27.77;;;6.90;;
39452;SDS011;25154;-33.684;151.102;2023-02-18T15:20:05;33.40;;;6.45;;
39452;SDS011;25154;-33.684;151.102;2023-02-18T15:25:14;36.85;;;7.45;;
39452;SDS011;25154;-33.684;151.102;2023-02-18T15:30:24;26.65;;;5.95;;
39452;SDS011;25154;-33.684;151.102;2023-02-18T15:35:32;27.13;;;5.88;;
39452;SDS011;25154;-33.684;151.102;2023-02-18T15:40:35;25.75;;;6.75;;
39452;SDS011;25154;-33.684;151.102;2023-02-18T15:45:40;27.35;;;5.93;;
39452;SDS011;25154;-33.684;151.102;2023-02-18T15:50:48;30.17;;;6.03;;
39452;SDS011;25154;-33.684;151.102;2023-02-18T15:55:53;26.98;;;5.32;;
39452;SDS011;25154;-33.684;151.102;2023-02-18T16:00:57;23.08;;;4.70;;
39452;SDS011;25154;-33.684;151.102;2023-02-18T16:06:18;22.90;;;5.00;;
39452;SDS011;25154;-33.684;151.102;2023-02-18T16:11:24;31.08;;;6.18;;
39452;SDS011;25154;-33.684;151.102;2023-02-18T16:16:36;21.52;;;4.95;;
39452;SDS011;25154;-33.684;151.102;2023-02-18T16:21:43;22.65;;;5.05;;
39452;SDS011;25154;-33.684;151.102;2023-02-18T16:26:49;32.70;;;5.23;;
39452;SDS011;25154;-33.684;151.102;2023-02-18T16:31:53;28.33;;;5.97;;
39452;SDS011;25154;-33.684;151.102;2023-02-18T16:36:57;23.98;;;5.13;;
39452;SDS011;25154;-33.684;151.102;2023-02-18T16:42:17;23.73;;;5.38;;
39452;SDS011;25154;-33.684;151.102;2023-02-18T16:47:20;19.65;;;4.85;;
39452;SDS011;25154;-33.684;151.102;2023-02-18T16:52:23;27.00;;;4.85;;
39452;SDS011;25154;-33.684;151.102;2023-02-18T16:57:26;21.10;;;4.65;;
39452;SDS011;25154;-33.684;151.102;2023-02-18T17:02:28;18.55;;;4.35;;
39452;SDS011;25154;-33.684;151.102;2023-02-18T17:07:32;19.33;;;4.30;;
39452;SDS011;25154;-33.684;151.102;2023-02-18T17:12:36;17.52;;;4.80;;
39452;SDS011;25154;-33.684;151.102;2023-02-18T17:17:42;13.30;;;3.85;;
39452;SDS011;25154;-33.684;151.102;2023-02-18T17:22:45;14.25;;;3.90;;
39452;SDS011;25154;-33.684;151.102;2023-02-18T17:27:49;19.73;;;3.97;;
39452;SDS011;25154;-33.684;151.102;2023-02-18T17:32:52;14.50;;;3.65;;
39452;SDS011;25154;-33.684;151.102;2023-02-18T17:37:54;21.27;;;3.47;;
39452;SDS011;25154;-33.684;151.102;2023-02-18T17:42:58;15.93;;;3.83;;
39452;SDS011;25154;-33.684;151.102;2023-02-18T17:48:01;16.35;;;3.70;;
39452;SDS011;25154;-33.684;151.102;2023-02-18T17:53:04;20.30;;;4.05;;
39452;SDS011;25154;-33.684;151.102;2023-02-18T17:58:07;22.67;;;4.20;;
39452;SDS011;25154;-33.684;151.102;2023-02-18T18:03:11;17.60;;;3.50;;
39452;SDS011;25154;-33.684;151.102;2023-02-18T18:08:14;19.55;;;3.78;;
39452;SDS011;25154;-33.684;151.102;2023-02-18T18:13:22;19.95;;;3.80;;
39452;SDS011;25154;-33.684;151.102;2023-02-18T18:18:29;18.58;;;3.97;;
39452;SDS011;25154;-33.684;151.102;2023-02-18T18:23:33;19.85;;;3.75;;
39452;SDS011;25154;-33.684;151.102;2023-02-18T18:28:36;21.02;;;3.90;;
39452;SDS011;25154;-33.684;151.102;2023-02-18T18:33:39;21.92;;;3.97;;
39452;SDS011;25154;-33.684;151.102;2023-02-18T18:38:42;19.00;;;3.97;;
39452;SDS011;25154;-33.684;151.102;2023-02-18T18:43:45;20.13;;;4.20;;
39452;SDS011;25154;-33.684;151.102;2023-02-18T18:48:49;16.60;;;3.55;;
39452;SDS011;25154;-33.684;151.102;2023-02-18T18:53:51;23.65;;;4.40;;
39452;SDS011;25154;-33.684;151.102;2023-02-18T18:58:54;18.92;;;4.28;;
39452;SDS011;25154;-33.684;151.102;2023-02-18T19:03:58;15.10;;;3.40;;
39452;SDS011;25154;-33.684;151.102;2023-02-18T19:09:00;24.27;;;3.83;;
39452;SDS011;25154;-33.684;151.102;2023-02-18T19:14:03;21.42;;;4.22;;
39452;SDS011;25154;-33.684;151.102;2023-02-18T19:19:08;23.63;;;4.45;;
39452;SDS011;25154;-33.684;151.102;2023-02-18T19:24:11;15.15;;;3.63;;
39452;SDS011;25154;-33.684;151.102;2023-02-18T19:29:13;18.13;;;4.07;;
39452;SDS011;25154;-33.684;151.102;2023-02-18T19:34:18;29.45;;;4.00;;
39452;SDS011;25154;-33.684;151.102;2023-02-18T19:39:22;30.55;;;4.85;;
39452;SDS011;25154;-33.684;151.102;2023-02-18T19:44:25;18.25;;;3.85;;
39452;SDS011;25154;-33.684;151.102;2023-02-18T19:54:34;19.65;;;3.70;;
39452;SDS011;25154;-33.684;151.102;2023-02-18T19:59:38;24.77;;;4.05;;
39452;SDS011;25154;-33.684;151.102;2023-02-18T20:04:41;23.00;;;4.95;;
39452;SDS011;25154;-33.684;151.102;2023-02-18T20:09:44;25.15;;;4.25;;
39452;SDS011;25154;-33.684;151.102;2023-02-18T20:14:49;21.65;;;3.78;;
39452;SDS011;25154;-33.684;151.102;2023-02-18T20:19:52;24.30;;;3.92;;
39452;SDS011;25154;-33.684;151.102;2023-02-18T20:24:54;24.52;;;3.90;;
39452;SDS011;25154;-33.684;151.102;2023-02-18T20:29:56;24.83;;;3.63;;
39452;SDS011;25154;-33.684;151.102;2023-02-18T20:34:59;26.45;;;3.80;;
39452;SDS011;25154;-33.684;151.102;2023-02-18T20:40:02;14.95;;;3.05;;
39452;SDS011;25154;-33.684;151.102;2023-02-18T20:45:04;21.90;;;4.05;;
39452;SDS011;25154;-33.684;151.102;2023-02-18T20:50:07;19.15;;;3.55;;
39452;SDS011;25154;-33.684;151.102;2023-02-18T20:55:09;29.20;;;4.78;;
39452;SDS011;25154;-33.684;151.102;2023-02-18T21:00:13;21.67;;;3.28;;
39452;SDS011;25154;-33.684;151.102;2023-02-18T21:05:17;20.33;;;2.97;;
39452;SDS011;25154;-33.684;151.102;2023-02-18T21:10:19;18.50;;;2.80;;
39452;SDS011;25154;-33.684;151.102;2023-02-18T21:15:25;15.93;;;3.35;;
39452;SDS011;25154;-33.684;151.102;2023-02-18T21:20:28;16.70;;;2.95;;
39452;SDS011;25154;-33.684;151.102;2023-02-18T21:25:30;13.50;;;2.50;;
39452;SDS011;25154;-33.684;151.102;2023-02-18T21:30:38;17.95;;;2.97;;
39452;SDS011;25154;-33.684;151.102;2023-02-18T21:35:43;22.50;;;3.70;;
39452;SDS011;25154;-33.684;151.102;2023-02-18T21:40:48;18.35;;;2.70;;
39452;SDS011;25154;-33.684;151.102;2023-02-18T21:45:51;21.92;;;2.70;;
39452;SDS011;25154;-33.684;151.102;2023-02-18T21:50:54;19.70;;;2.58;;
39452;SDS011;25154;-33.684;151.102;2023-02-18T21:56:10;21.88;;;2.90;;
39452;SDS011;25154;-33.684;151.102;2023-02-18T22:01:18;19.98;;;2.70;;
39452;SDS011;25154;-33.684;151.102;2023-02-18T22:06:22;13.98;;;2.70;;
39452;SDS011;25154;-33.684;151.102;2023-02-18T22:11:25;21.38;;;2.83;;
39452;SDS011;25154;-33.684;151.102;2023-02-18T22:16:30;15.00;;;2.67;;
39452;SDS011;25154;-33.684;151.102;2023-02-18T22:21:34;14.07;;;2.10;;
39452;SDS011;25154;-33.684;151.102;2023-02-18T22:26:38;19.85;;;2.90;;
39452;SDS011;25154;-33.684;151.102;2023-02-18T22:31:43;13.88;;;2.40;;
39452;SDS011;25154;-33.684;151.102;2023-02-18T22:36:47;22.13;;;4.18;;
39452;SDS011;25154;-33.684;151.102;2023-02-18T22:41:49;16.63;;;3.28;;
39452;SDS011;25154;-33.684;151.102;2023-02-18T22:46:55;18.00;;;2.70;;
39452;SDS011;25154;-33.684;151.102;2023-02-18T22:51:58;17.15;;;2.85;;
39452;SDS011;25154;-33.684;151.102;2023-02-18T22:57:02;19.15;;;3.25;;
39452;SDS011;25154;-33.684;151.102;2023-02-18T23:02:04;11.00;;;2.10;;
39452;SDS011;25154;-33.684;151.102;2023-02-18T23:07:10;17.48;;;2.60;;
39452;SDS011;25154;-33.684;151.102;2023-02-18T23:12:13;15.50;;;2.60;;
39452;SDS011;25154;-33.684;151.102;2023-02-18T23:17:16;17.67;;;3.05;;
39452;SDS011;25154;-33.684;151.102;2023-02-18T23:22:23;11.32;;;2.13;;
39452;SDS011;25154;-33.684;151.102;2023-02-18T23:27:33;17.63;;;3.50;;
39452;SDS011;25154;-33.684;151.102;2023-02-18T23:32:43;11.55;;;2.63;;
39452;SDS011;25154;-33.684;151.102;2023-02-18T23:37:45;15.20;;;2.70;;
39452;SDS011;25154;-33.684;151.102;2023-02-18T23:43:03;15.05;;;2.50;;
39452;SDS011;25154;-33.684;151.102;2023-02-18T23:48:05;14.60;;;2.67;;
39452;SDS011;25154;-33.684;151.102;2023-02-18T23:53:07;22.50;;;3.63;;
39452;SDS011;25154;-33.684;151.102;2023-02-18T23:58:10;21.30;;;3.58;;
